createdAt,value
2019-01-09T00:00:51.745Z,5.30
2019-01-09T00:03:21.267Z,6.77
2019-01-09T00:05:52.913Z,6.00
2019-01-09T00:08:23.707Z,4.90
2019-01-09T00:10:50.421Z,7.80
2019-01-09T00:13:16.892Z,5.40
2019-01-09T00:15:43.513Z,5.57
2019-01-09T00:18:09.986Z,5.57
2019-01-09T00:20:36.455Z,5.03
2019-01-09T00:23:03.038Z,5.43
2019-01-09T00:25:29.306Z,5.83
2019-01-09T00:27:55.685Z,4.87
2019-01-09T00:30:22.117Z,7.27
2019-01-09T00:32:48.510Z,6.40
2019-01-09T00:35:14.974Z,6.23
2019-01-09T00:37:41.556Z,5.33
2019-01-09T00:40:08.416Z,6.77
2019-01-09T00:42:34.922Z,5.30
2019-01-09T00:45:01.397Z,4.63
2019-01-09T00:47:27.827Z,5.27
2019-01-09T00:49:54.315Z,8.27
2019-01-09T00:52:20.800Z,5.33
2019-01-09T00:54:47.248Z,7.37
2019-01-09T00:57:13.697Z,6.57
2019-01-09T00:59:40.181Z,8.50
2019-01-09T01:02:19.273Z,5.80
2019-01-09T01:05:08.665Z,5.40
2019-01-09T01:07:55.476Z,5.43
2019-01-09T01:10:31.541Z,9.03
2019-01-09T01:13:27.400Z,4.37
2019-01-09T01:16:14.199Z,7.60
2019-01-09T01:18:56.273Z,4.70
2019-01-09T01:21:29.357Z,5.77
2019-01-09T01:24:28.336Z,4.00
2019-01-09T01:27:01.511Z,5.20
2019-01-09T01:29:47.018Z,7.30
2019-01-09T01:32:23.078Z,6.40
2019-01-09T01:35:11.351Z,4.73
2019-01-09T01:37:53.282Z,4.90
2019-01-09T01:40:31.620Z,3.83
2019-01-09T01:43:07.444Z,5.13
2019-01-09T01:45:52.878Z,6.27
2019-01-09T01:48:41.412Z,5.37
2019-01-09T01:51:20.916Z,8.17
2019-01-09T01:53:51.022Z,4.77
2019-01-09T01:56:55.694Z,5.00
2019-01-09T01:59:38.334Z,6.23
2019-01-09T02:02:14.733Z,6.73
2019-01-09T02:04:48.190Z,3.67
2019-01-09T02:07:21.441Z,6.07
2019-01-09T02:09:54.658Z,6.43
2019-01-09T02:12:59.775Z,8.10
2019-01-09T02:15:35.218Z,5.97
2019-01-09T02:18:05.747Z,5.00
2019-01-09T02:20:42.840Z,5.25
2019-01-09T02:23:31.406Z,5.53
2019-01-09T02:26:07.521Z,6.13
2019-01-09T02:28:40.433Z,4.73
2019-01-09T02:31:19.550Z,3.60
2019-01-09T02:33:46.397Z,4.10
2019-01-09T02:36:13.881Z,4.40
2019-01-09T02:38:43.048Z,5.22
2019-01-09T02:41:09.722Z,7.00
2019-01-09T02:43:36.351Z,6.77
2019-01-09T02:46:02.722Z,5.40
2019-01-09T02:48:29.605Z,6.17
2019-01-09T02:50:56.209Z,6.17
2019-01-09T02:53:23.258Z,7.33
2019-01-09T02:55:51.577Z,7.70
2019-01-09T02:58:21.108Z,6.60
2019-01-09T03:00:50.966Z,6.07
2019-01-09T03:03:17.434Z,2.77
2019-01-09T03:05:43.693Z,6.90
2019-01-09T03:08:10.188Z,5.97
2019-01-09T03:10:36.600Z,8.50
2019-01-09T03:13:03.267Z,5.80
2019-01-09T03:15:30.111Z,3.70
2019-01-09T03:17:56.725Z,4.87
2019-01-09T03:20:23.413Z,6.87
2019-01-09T03:22:49.826Z,6.57
2019-01-09T03:25:16.236Z,4.75
2019-01-09T03:27:43.089Z,5.97
2019-01-09T03:30:09.861Z,5.13
2019-01-09T03:32:36.274Z,9.37
2019-01-09T03:35:03.601Z,6.60
2019-01-09T03:37:32.597Z,4.30
2019-01-09T03:40:03.847Z,3.47
2019-01-09T03:42:27.763Z,2.70
2019-01-09T03:44:54.630Z,6.23
2019-01-09T03:47:21.730Z,5.93
2019-01-09T03:49:48.505Z,4.50
2019-01-09T03:52:14.908Z,3.23
2019-01-09T03:54:41.264Z,5.03
2019-01-09T03:57:07.765Z,5.10
2019-01-09T03:59:35.742Z,3.73
2019-01-09T04:02:02.182Z,2.40
2019-01-09T04:04:28.795Z,3.37
2019-01-09T04:06:55.475Z,5.30
2019-01-09T04:09:21.951Z,4.43
2019-01-09T04:11:48.333Z,4.30
2019-01-09T04:14:14.801Z,4.07
2019-01-09T04:16:43.301Z,3.47
2019-01-09T04:19:09.591Z,4.33
2019-01-09T04:21:37.693Z,3.27
2019-01-09T04:24:03.980Z,3.73
2019-01-09T04:26:30.748Z,4.33
2019-01-09T04:28:57.984Z,5.03
2019-01-09T04:31:24.850Z,4.57
2019-01-09T04:33:51.244Z,3.10
2019-01-09T04:36:17.746Z,3.57
2019-01-09T04:38:44.143Z,3.43
2019-01-09T04:41:10.437Z,3.87
2019-01-09T04:43:36.874Z,2.63
2019-01-09T04:46:03.210Z,4.80
2019-01-09T04:48:31.509Z,4.93
2019-01-09T04:50:57.908Z,5.27
2019-01-09T04:53:24.190Z,3.23
2019-01-09T04:55:50.458Z,4.00
2019-01-09T04:58:16.848Z,4.80
2019-01-09T05:00:43.386Z,3.87
2019-01-09T05:03:16.715Z,5.30
2019-01-09T05:05:43.458Z,5.37
2019-01-09T05:08:09.686Z,4.40
2019-01-09T05:10:36.045Z,5.00
2019-01-09T05:13:02.479Z,3.93
2019-01-09T05:15:29.095Z,3.23
2019-01-09T05:17:55.434Z,5.40
2019-01-09T05:20:22.172Z,5.00
2019-01-09T05:22:48.522Z,4.47
2019-01-09T05:25:14.962Z,6.87
2019-01-09T05:27:41.373Z,6.97
2019-01-09T05:30:07.837Z,4.83
2019-01-09T05:32:34.391Z,6.63
2019-01-09T05:35:00.915Z,7.63
2019-01-09T05:37:27.304Z,6.40
2019-01-09T05:39:56.334Z,5.53
2019-01-09T05:42:22.682Z,5.13
2019-01-09T05:44:48.941Z,6.47
2019-01-09T05:47:17.155Z,5.87
2019-01-09T05:49:43.383Z,6.57
2019-01-09T05:52:09.760Z,6.27
2019-01-09T05:54:36.235Z,9.63
2019-01-09T05:57:04.841Z,5.00
2019-01-09T05:59:31.158Z,5.87
2019-01-09T06:01:57.568Z,4.50
2019-01-09T06:04:25.857Z,7.37
2019-01-09T06:06:54.189Z,7.50
2019-01-09T06:09:22.665Z,8.50
2019-01-09T06:11:51.722Z,5.70
2019-01-09T06:14:26.285Z,5.93
2019-01-09T06:16:55.846Z,6.13
2019-01-09T06:19:22.695Z,9.13
2019-01-09T06:21:51.447Z,10.13
2019-01-09T06:24:17.907Z,6.80
2019-01-09T06:26:45.203Z,8.07
2019-01-09T06:29:18.094Z,4.83
2019-01-09T06:31:49.362Z,6.30
2019-01-09T06:34:19.365Z,7.23
2019-01-09T06:37:27.089Z,7.53
2019-01-09T06:39:49.810Z,4.90
2019-01-09T06:42:25.867Z,4.60
2019-01-09T06:44:52.210Z,6.37
2019-01-09T06:47:21.420Z,7.67
2019-01-09T06:49:47.758Z,5.13
2019-01-09T06:52:14.230Z,8.13
2019-01-09T06:54:40.571Z,5.70
2019-01-09T06:57:07.537Z,6.10
2019-01-09T06:59:33.841Z,8.13
2019-01-09T07:02:00.048Z,5.83
2019-01-09T07:04:26.340Z,12.70
2019-01-09T07:06:52.713Z,9.50
2019-01-09T07:09:18.990Z,6.33
2019-01-09T07:11:46.129Z,5.47
2019-01-09T07:14:12.816Z,5.03
2019-01-09T07:16:39.243Z,6.30
2019-01-09T07:19:06.931Z,2.37
2019-01-09T07:21:33.414Z,4.57
2019-01-09T07:23:59.750Z,4.40
2019-01-09T07:26:26.207Z,3.93
2019-01-09T07:28:56.387Z,2.93
2019-01-09T07:31:22.850Z,3.10
2019-01-09T07:33:49.225Z,3.97
2019-01-09T07:36:16.754Z,5.03
2019-01-09T07:38:43.328Z,4.17
2019-01-09T07:41:09.889Z,7.37
2019-01-09T07:43:36.889Z,3.30
2019-01-09T07:46:03.402Z,5.33
2019-01-09T07:48:32.950Z,3.83
2019-01-09T07:50:59.279Z,11.53
2019-01-09T07:53:26.415Z,11.03
2019-01-09T07:55:53.557Z,16.33
2019-01-09T07:58:22.543Z,15.50
2019-01-09T08:00:50.077Z,16.67
2019-01-09T08:03:17.464Z,14.77
2019-01-09T08:05:47.570Z,14.27
2019-01-09T08:08:19.471Z,20.43
2019-01-09T08:10:50.161Z,10.87
2019-01-09T08:13:19.587Z,23.83
2019-01-09T08:15:45.986Z,21.20
2019-01-09T08:18:12.575Z,14.83
2019-01-09T08:20:39.901Z,12.00
2019-01-09T08:23:07.300Z,19.73
2019-01-09T08:25:34.655Z,14.20
2019-01-09T08:28:01.608Z,10.37
2019-01-09T08:30:28.069Z,11.07
2019-01-09T08:32:57.874Z,11.23
2019-01-09T08:35:25.109Z,4.63
2019-01-09T08:38:02.444Z,10.97
2019-01-09T08:40:22.156Z,10.57
2019-01-09T08:42:49.076Z,16.00
2019-01-09T08:45:15.342Z,7.80
2019-01-09T08:47:41.873Z,7.93
2019-01-09T08:50:08.502Z,5.90
2019-01-09T08:52:34.768Z,8.57
2019-01-09T08:55:01.240Z,6.57
2019-01-09T08:57:29.663Z,7.13
2019-01-09T08:59:56.736Z,3.87
2019-01-09T09:02:23.619Z,5.50
2019-01-09T09:04:50.331Z,4.77
2019-01-09T09:07:17.446Z,4.93
2019-01-09T09:09:43.714Z,4.63
2019-01-09T09:12:10.026Z,6.23
2019-01-09T09:14:36.402Z,5.30
2019-01-09T09:17:08.081Z,5.57
2019-01-09T09:19:34.440Z,5.70
2019-01-09T09:22:00.795Z,5.13
2019-01-09T09:24:27.276Z,5.33
2019-01-09T09:26:53.581Z,4.77
2019-01-09T09:29:19.913Z,4.80
2019-01-09T09:31:46.288Z,6.83
2019-01-09T09:34:12.589Z,4.80
2019-01-09T09:36:39.010Z,5.33
2019-01-09T09:39:07.386Z,7.83
2019-01-09T09:41:33.746Z,4.27
2019-01-09T09:44:00.111Z,9.10
2019-01-09T09:46:26.581Z,4.37
2019-01-09T09:48:52.862Z,5.27
2019-01-09T09:51:19.338Z,6.67
2019-01-09T09:53:45.609Z,5.10
2019-01-09T09:56:11.983Z,5.23
2019-01-09T09:58:38.371Z,4.60
2019-01-09T10:01:04.691Z,7.23
2019-01-09T10:03:31.087Z,8.60
2019-01-09T10:05:57.492Z,7.17
2019-01-09T10:08:29.326Z,5.53
2019-01-09T10:10:51.841Z,6.27
2019-01-09T10:13:18.237Z,7.97
2019-01-09T10:15:44.600Z,8.50
2019-01-09T10:18:11.020Z,8.33
2019-01-09T10:20:37.250Z,7.13
2019-01-09T10:23:03.728Z,5.20
2019-01-09T10:25:29.969Z,7.53
2019-01-09T10:27:56.524Z,9.10
2019-01-09T10:30:22.979Z,6.27
2019-01-09T10:32:49.261Z,5.50
2019-01-09T10:35:15.838Z,5.50
2019-01-09T10:37:44.323Z,7.37
2019-01-09T10:40:16.734Z,3.80
2019-01-09T10:42:43.226Z,7.20
2019-01-09T10:45:13.102Z,4.60
2019-01-09T10:47:39.340Z,8.20
2019-01-09T10:50:08.855Z,9.00
2019-01-09T10:52:35.115Z,5.97
2019-01-09T10:55:01.772Z,5.33
2019-01-09T10:57:28.238Z,9.20
2019-01-09T10:59:54.645Z,13.97
2019-01-09T11:02:21.173Z,5.20
2019-01-09T11:04:47.688Z,9.13
2019-01-09T11:07:13.974Z,11.80
2019-01-09T11:09:40.463Z,8.83
2019-01-09T11:12:06.831Z,6.60
2019-01-09T11:14:33.073Z,7.40
2019-01-09T11:16:59.356Z,9.47
2019-01-09T11:19:25.620Z,6.40
2019-01-09T11:21:51.967Z,6.00
2019-01-09T11:24:18.321Z,5.67
2019-01-09T11:26:44.688Z,4.63
2019-01-09T11:29:10.968Z,3.70
2019-01-09T11:31:37.226Z,4.43
2019-01-09T11:34:03.641Z,5.97
2019-01-09T11:36:29.948Z,7.20
2019-01-09T11:38:56.230Z,5.30
2019-01-09T11:41:25.214Z,5.47
2019-01-09T11:43:51.609Z,8.07
2019-01-09T11:46:18.567Z,4.53
2019-01-09T11:48:44.831Z,5.10
2019-01-09T11:51:11.177Z,3.57
2019-01-09T11:53:37.575Z,8.30
2019-01-09T11:56:04.059Z,4.57
2019-01-09T11:58:30.303Z,5.33
2019-01-09T12:00:56.739Z,5.90
2019-01-09T12:03:23.048Z,5.83
2019-01-09T12:05:49.478Z,8.70
2019-01-09T12:08:15.911Z,6.13
2019-01-09T12:10:42.332Z,5.77
2019-01-09T12:13:08.562Z,6.53
2019-01-09T12:15:34.878Z,7.50
2019-01-09T12:18:01.170Z,7.60
2019-01-09T12:20:27.678Z,7.57
2019-01-09T12:22:54.167Z,6.67
2019-01-09T12:25:20.543Z,6.97
2019-01-09T12:27:47.011Z,7.30
2019-01-09T12:30:22.909Z,7.80
2019-01-09T12:32:49.296Z,6.27
2019-01-09T12:35:15.736Z,6.60
2019-01-09T12:37:42.116Z,5.73
2019-01-09T12:40:09.074Z,3.47
2019-01-09T12:42:35.342Z,5.23
2019-01-09T12:45:03.944Z,5.93
2019-01-09T12:47:30.169Z,9.83
2019-01-09T12:49:56.505Z,7.40
2019-01-09T12:52:22.806Z,9.63
2019-01-09T12:54:49.105Z,6.20
2019-01-09T12:57:15.433Z,7.20
2019-01-09T12:59:41.777Z,6.77
2019-01-09T13:02:08.186Z,6.10
2019-01-09T13:04:34.480Z,6.47
2019-01-09T13:07:00.908Z,5.97
2019-01-09T13:09:27.332Z,7.30
2019-01-09T13:11:53.694Z,6.27
2019-01-09T13:14:20.108Z,8.63
2019-01-09T13:16:47.965Z,7.43
2019-01-09T13:19:14.426Z,9.50
2019-01-09T13:21:40.798Z,9.63
2019-01-09T13:24:07.193Z,11.40
2019-01-09T13:26:33.569Z,5.40
2019-01-09T13:28:59.932Z,8.00
2019-01-09T13:31:26.331Z,6.43
2019-01-09T13:33:52.550Z,7.70
2019-01-09T13:36:18.854Z,5.80
2019-01-09T13:38:45.104Z,7.67
2019-01-09T13:41:14.438Z,5.13
2019-01-09T13:43:40.802Z,5.50
2019-01-09T13:46:07.138Z,6.77
2019-01-09T13:48:33.512Z,5.63
2019-01-09T13:50:59.835Z,5.73
2019-01-09T13:53:26.412Z,5.50
2019-01-09T13:55:52.665Z,7.50
2019-01-09T13:58:19.082Z,5.73
2019-01-09T14:00:45.465Z,8.00
2019-01-09T14:03:11.833Z,5.50
2019-01-09T14:05:38.485Z,4.07
2019-01-09T14:08:04.866Z,5.93
2019-01-09T14:10:31.120Z,7.30
2019-01-09T14:12:57.389Z,3.93
2019-01-09T14:15:23.732Z,6.40
2019-01-09T14:17:50.076Z,7.20
2019-01-09T14:20:16.610Z,10.07
2019-01-09T14:22:43.298Z,6.87
2019-01-09T14:25:11.453Z,8.53
2019-01-09T14:27:37.939Z,8.70
2019-01-09T14:30:08.023Z,13.07
2019-01-09T14:32:34.381Z,7.30
2019-01-09T14:35:00.746Z,5.83
2019-01-09T14:37:27.173Z,5.30
2019-01-09T14:39:53.660Z,6.40
2019-01-09T14:42:19.908Z,6.63
2019-01-09T14:44:46.253Z,4.33
2019-01-09T14:47:12.528Z,7.60
2019-01-09T14:49:38.846Z,5.10
2019-01-09T14:52:05.592Z,8.80
2019-01-09T14:54:31.935Z,6.57
2019-01-09T14:56:58.437Z,5.17
2019-01-09T14:59:24.695Z,5.30
2019-01-09T15:01:51.007Z,4.17
2019-01-09T15:04:17.798Z,8.57
2019-01-09T15:06:44.173Z,5.67
2019-01-09T15:09:10.714Z,5.23
2019-01-09T15:11:37.194Z,8.67
2019-01-09T15:14:04.641Z,6.60
2019-01-09T15:16:31.838Z,7.83
2019-01-09T15:18:59.223Z,7.10
2019-01-09T15:21:26.214Z,5.87
2019-01-09T15:23:52.838Z,6.10
2019-01-09T15:26:20.028Z,4.67
2019-01-09T15:28:49.107Z,5.07
2019-01-09T15:31:15.468Z,6.83
2019-01-09T15:33:50.044Z,6.86
2019-01-09T15:36:16.523Z,6.67
2019-01-09T15:38:45.377Z,5.20
2019-01-09T15:41:12.260Z,7.07
2019-01-09T15:43:38.742Z,6.23
2019-01-09T15:46:05.117Z,10.93
2019-01-09T15:48:31.577Z,5.47
2019-01-09T15:50:57.860Z,6.73
2019-01-09T15:53:24.165Z,5.10
2019-01-09T15:55:50.507Z,4.97
2019-01-09T15:58:16.932Z,4.43
2019-01-09T16:00:43.428Z,4.67
2019-01-09T16:03:09.907Z,4.97
2019-01-09T16:05:36.398Z,5.47
2019-01-09T16:08:03.986Z,6.40
2019-01-09T16:10:33.132Z,5.93
2019-01-09T16:12:59.491Z,4.27
2019-01-09T16:15:25.849Z,4.93
2019-01-09T16:17:52.199Z,8.77
2019-01-09T16:20:19.970Z,4.43
2019-01-09T16:22:46.442Z,5.57
2019-01-09T16:25:13.819Z,8.63
2019-01-09T16:27:40.373Z,4.63
2019-01-09T16:30:22.073Z,5.90
2019-01-09T16:32:48.521Z,8.67
2019-01-09T16:35:14.792Z,6.23
2019-01-09T16:37:41.187Z,4.97
2019-01-09T16:40:23.292Z,4.43
2019-01-09T16:42:44.631Z,10.50
2019-01-09T16:45:13.462Z,8.67
2019-01-09T16:47:40.328Z,6.73
2019-01-09T16:50:16.391Z,5.87
2019-01-09T16:52:42.799Z,5.40
2019-01-09T16:55:09.264Z,6.20
2019-01-09T16:57:42.168Z,6.77
2019-01-09T17:00:21.671Z,7.63
2019-01-09T17:02:49.268Z,6.63
2019-01-09T17:05:16.483Z,8.50
2019-01-09T17:07:42.851Z,6.77
2019-01-09T17:10:13.484Z,7.93
2019-01-09T17:12:41.888Z,6.93
2019-01-09T17:15:11.504Z,7.57
2019-01-09T17:17:37.952Z,9.53
2019-01-09T17:20:07.986Z,7.83
2019-01-09T17:22:34.377Z,8.40
2019-01-09T17:25:00.770Z,7.93
2019-01-09T17:27:27.230Z,6.27
2019-01-09T17:29:53.868Z,12.43
2019-01-09T17:32:21.746Z,11.23
2019-01-09T17:34:48.146Z,5.63
2019-01-09T17:37:14.516Z,8.53
2019-01-09T17:39:40.849Z,6.40
2019-01-09T17:42:07.288Z,6.33
2019-01-09T17:44:33.549Z,10.37
2019-01-09T17:46:59.785Z,8.43
2019-01-09T17:49:26.245Z,10.13
2019-01-09T17:51:52.551Z,8.00
2019-01-09T17:54:18.897Z,9.17
2019-01-09T17:56:45.219Z,8.60
2019-01-09T17:59:11.716Z,8.40
2019-01-09T18:01:38.077Z,6.50
2019-01-09T18:04:04.754Z,8.10
2019-01-09T18:06:31.015Z,8.07
2019-01-09T18:08:57.381Z,9.23
2019-01-09T18:11:23.819Z,15.33
2019-01-09T18:13:50.209Z,14.50
2019-01-09T18:16:16.830Z,11.23
2019-01-09T18:18:43.279Z,11.53
2019-01-09T18:21:09.709Z,13.33
2019-01-09T18:23:36.205Z,8.37
2019-01-09T18:26:02.971Z,11.90
2019-01-09T18:28:29.356Z,10.17
2019-01-09T18:31:03.628Z,9.67
2019-01-09T18:33:31.301Z,11.13
2019-01-09T18:36:16.699Z,11.87
2019-01-09T18:39:07.834Z,14.43
2019-01-09T18:41:46.738Z,12.97
2019-01-09T18:44:29.184Z,11.17
2019-01-09T18:47:05.349Z,9.10
2019-01-09T18:49:53.479Z,15.97
2019-01-09T18:52:31.989Z,12.40
2019-01-09T18:54:58.447Z,14.17
2019-01-09T18:57:24.976Z,14.70
2019-01-09T18:59:51.438Z,11.90
2019-01-09T19:02:18.096Z,16.57
2019-01-09T19:04:44.839Z,11.30
2019-01-09T19:07:11.390Z,16.07
2019-01-09T19:09:37.764Z,15.67
2019-01-09T19:12:04.358Z,17.00
2019-01-09T19:14:30.885Z,16.03
2019-01-09T19:16:57.344Z,12.53
2019-01-09T19:19:24.202Z,14.40
2019-01-09T19:21:50.658Z,15.97
2019-01-09T19:24:17.260Z,13.43
2019-01-09T19:26:43.724Z,16.17
2019-01-09T19:29:10.198Z,16.73
2019-01-09T19:31:36.693Z,18.67
2019-01-09T19:34:03.278Z,18.67
2019-01-09T19:36:29.626Z,17.87
2019-01-09T19:38:56.169Z,20.03
2019-01-09T19:41:22.543Z,18.03
2019-01-09T19:43:49.012Z,12.47
2019-01-09T19:46:15.317Z,13.70
2019-01-09T19:48:41.825Z,15.73
2019-01-09T19:51:17.080Z,18.27
2019-01-09T19:53:36.862Z,15.27
2019-01-09T19:56:04.206Z,14.43
2019-01-09T19:58:30.490Z,13.50
2019-01-09T20:00:56.883Z,15.67
2019-01-09T20:03:23.383Z,17.60
2019-01-09T20:05:49.817Z,16.87
2019-01-09T20:08:16.363Z,13.07
2019-01-09T20:10:42.670Z,10.87
2019-01-09T20:13:09.258Z,12.77
2019-01-09T20:15:35.701Z,12.30
2019-01-09T20:18:02.222Z,11.73
2019-01-09T20:20:28.619Z,14.40
2019-01-09T20:22:54.970Z,18.13
2019-01-09T20:25:21.509Z,20.37
2019-01-09T20:27:48.105Z,15.43
2019-01-09T20:30:21.593Z,18.23
2019-01-09T20:32:47.938Z,18.77
2019-01-09T20:35:14.413Z,17.03
2019-01-09T20:37:40.881Z,10.13
2019-01-09T20:40:10.674Z,14.13
2019-01-09T20:42:37.062Z,10.03
2019-01-09T20:45:06.513Z,8.50
2019-01-09T20:47:33.015Z,9.60
2019-01-09T20:49:59.421Z,13.43
2019-01-09T20:52:25.804Z,8.40
2019-01-09T20:54:52.210Z,6.63
2019-01-09T20:57:18.723Z,9.70
2019-01-09T20:59:45.181Z,9.63
2019-01-09T21:02:11.818Z,11.27
2019-01-09T21:04:38.480Z,9.47
2019-01-09T21:07:05.597Z,7.57
2019-01-09T21:09:32.036Z,12.43
2019-01-09T21:12:00.463Z,9.13
2019-01-09T21:14:26.815Z,10.40
2019-01-09T21:16:53.159Z,10.23
2019-01-09T21:19:19.575Z,9.80
2019-01-09T21:21:46.110Z,11.87
2019-01-09T21:24:12.576Z,10.17
2019-01-09T21:26:39.358Z,7.07
2019-01-09T21:29:05.780Z,9.47
2019-01-09T21:31:32.766Z,11.30
2019-01-09T21:34:01.816Z,6.57
2019-01-09T21:36:29.060Z,6.07
2019-01-09T21:38:55.474Z,6.40
2019-01-09T21:41:21.939Z,7.07
2019-01-09T21:43:48.675Z,7.70
2019-01-09T21:46:15.179Z,4.60
2019-01-09T21:48:41.529Z,6.23
2019-01-09T21:51:08.125Z,7.00
2019-01-09T21:53:34.568Z,4.97
2019-01-09T21:56:01.041Z,5.27
2019-01-09T21:58:27.324Z,5.23
2019-01-09T22:00:53.786Z,6.07
2019-01-09T22:03:20.307Z,7.43
2019-01-09T22:05:46.672Z,8.60
2019-01-09T22:08:13.098Z,4.80
2019-01-09T22:10:39.615Z,7.43
2019-01-09T22:13:06.130Z,4.20
2019-01-09T22:15:32.624Z,5.10
2019-01-09T22:17:59.117Z,4.23
2019-01-09T22:20:25.674Z,5.10
2019-01-09T22:22:52.141Z,9.37
2019-01-09T22:25:18.601Z,5.60
2019-01-09T22:27:45.243Z,5.83
2019-01-09T22:30:17.857Z,7.37
2019-01-09T22:32:44.826Z,7.63
2019-01-09T22:35:11.293Z,7.83
2019-01-09T22:37:37.737Z,6.87
2019-01-09T22:40:07.594Z,7.90
2019-01-09T22:42:34.099Z,6.17
2019-01-09T22:45:00.566Z,9.17
2019-01-09T22:47:26.936Z,9.37
2019-01-09T22:49:53.313Z,9.07
2019-01-09T22:52:19.691Z,8.03
2019-01-09T22:54:46.116Z,10.50
2019-01-09T22:57:12.441Z,6.77
2019-01-09T22:59:38.929Z,7.27
2019-01-09T23:02:05.598Z,5.93
2019-01-09T23:04:32.324Z,7.87
2019-01-09T23:06:58.749Z,8.27
2019-01-09T23:09:25.246Z,6.63
2019-01-09T23:11:51.513Z,7.10
2019-01-09T23:14:18.045Z,7.27
2019-01-09T23:16:44.569Z,6.67
2019-01-09T23:19:11.061Z,8.00
2019-01-09T23:21:37.449Z,7.73
2019-01-09T23:24:03.953Z,6.07
2019-01-09T23:26:30.204Z,8.77
2019-01-09T23:28:56.678Z,7.60
2019-01-09T23:31:23.303Z,8.67
2019-01-09T23:33:49.584Z,7.07
2019-01-09T23:36:16.033Z,7.17
2019-01-09T23:38:42.590Z,8.77
2019-01-09T23:41:09.379Z,6.33
2019-01-09T23:43:35.840Z,6.73
2019-01-09T23:46:03.035Z,6.67
2019-01-09T23:48:29.422Z,9.00
2019-01-09T23:50:55.919Z,8.53
2019-01-09T23:53:22.275Z,9.07
2019-01-09T23:55:48.665Z,8.30
2019-01-09T23:58:15.109Z,6.33
